Time,TemperatureF,DewpointF,PressureIn,WindDirection,WindDirectionDegrees,WindSpeedMPH,WindSpeedGustMPH,Humidity,HourlyPrecipIn,Conditions,Clouds,dailyrainin,SoftwareType,DateUTC
2013-02-05 00:07:00,20.6,19.6,29.96,SSW,204,9.0,15.0,96,0.00,,---,0.00,VWS V14.01,2013-02-05 06:07:00,
2013-02-05 00:37:00,20.9,19.9,29.94,SSE,158,3.0,18.0,96,0.00,,---,0.00,VWS V14.01,2013-02-05 06:37:00,
2013-02-05 01:07:00,21.2,20.2,29.93,SSE,163,6.0,21.0,96,0.00,,---,0.00,VWS V14.01,2013-02-05 07:07:00,
2013-02-05 01:37:00,21.5,20.3,29.94,SSE,162,3.0,18.0,95,0.00,,---,0.00,VWS V14.01,2013-02-05 07:37:00,
2013-02-05 02:07:00,21.7,20.5,29.94,SSW,195,9.0,12.0,95,0.00,,---,0.00,VWS V14.01,2013-02-05 08:07:00,
2013-02-05 02:37:00,21.8,20.8,29.92,SSE,150,3.0,15.0,96,0.00,,---,0.00,VWS V14.01,2013-02-05 08:37:00,
2013-02-05 03:07:00,22.0,21.0,29.90,SW,234,6.0,21.0,96,0.00,,---,0.00,VWS V14.01,2013-02-05 09:07:00,
2013-02-05 03:37:00,22.1,21.1,29.89,SSE,168,3.0,18.0,96,0.00,,---,0.00,VWS V14.01,2013-02-05 09:37:00,
2013-02-05 04:07:00,22.1,21.1,29.87,South,178,12.0,18.0,96,0.00,,---,0.00,VWS V14.01,2013-02-05 10:07:00,
2013-02-05 04:37:00,22.2,21.2,29.87,SSE,148,9.0,27.0,96,0.00,,---,0.00,VWS V14.01,2013-02-05 10:37:00,
2013-02-05 05:07:00,22.0,21.3,29.87,South,174,0.0,15.0,97,0.00,,---,0.00,VWS V14.01,2013-02-05 11:07:00,
2013-02-05 05:37:00,22.0,21.3,29.86,SSE,166,3.0,12.0,97,0.00,,---,0.00,VWS V14.01,2013-02-05 11:37:00,
2013-02-05 06:07:00,21.8,21.3,29.85,South,188,0.0,9.0,98,0.00,,---,0.00,VWS V14.01,2013-02-05 12:07:00,
2013-02-05 06:37:00,21.5,21.3,29.85,SSE,150,0.0,6.0,99,0.00,,---,0.00,VWS V14.01,2013-02-05 12:37:00,
2013-02-05 07:07:00,21.4,21.4,29.85,South,185,0.0,9.0,100,0.00,,---,0.00,VWS V14.01,2013-02-05 13:07:00,
2013-02-05 07:37:00,23.2,23.2,29.85,SSW,205,3.0,9.0,100,0.00,,---,0.00,VWS V14.01,2013-02-05 13:37:00,
2013-02-05 08:07:00,26.2,25.7,29.86,SSW,206,9.0,12.0,98,0.00,,---,0.00,VWS V14.01,2013-02-05 14:07:00,
2013-02-05 08:37:00,28.8,27.3,29.86,SSW,213,12.0,18.0,94,0.00,,---,0.00,VWS V14.01,2013-02-05 14:37:00,
2013-02-05 09:07:00,31.2,28.6,29.86,SW,232,6.0,24.0,90,0.00,,---,0.00,VWS V14.01,2013-02-05 15:07:00,
2013-02-05 09:37:00,34.4,30.4,29.88,West,263,18.0,27.0,85,0.00,,---,0.00,VWS V14.01,2013-02-05 15:37:00,
2013-02-05 10:07:00,36.6,31.9,29.90,WNW,301,6.0,30.0,83,0.00,,---,0.00,VWS V14.01,2013-02-05 16:07:00,
2013-02-05 10:37:00,38.3,33.0,29.90,NW,314,9.0,24.0,81,0.00,,---,0.00,VWS V14.01,2013-02-05 16:37:00,
2013-02-05 11:07:00,40.4,34.1,29.92,NW,322,15.0,27.0,78,0.00,,---,0.00,VWS V14.01,2013-02-05 17:07:00,
2013-02-05 11:37:00,41.7,35.0,29.94,WNW,283,33.0,39.0,77,0.00,,---,0.00,VWS V14.01,2013-02-05 17:37:00,
2013-02-05 12:07:00,40.5,35.1,29.95,WNW,296,9.0,48.0,81,0.00,,---,0.00,VWS V14.01,2013-02-05 18:07:00,
2013-02-05 12:37:00,42.3,36.3,29.95,NW,323,15.0,24.0,79,0.00,,---,0.00,VWS V14.01,2013-02-05 18:37:00,
2013-02-05 13:07:00,43.3,36.6,29.96,NNW,327,12.0,33.0,77,0.00,,---,0.00,VWS V14.01,2013-02-05 19:07:00,
2013-02-05 13:37:00,43.2,36.5,29.97,NNW,337,18.0,27.0,77,0.00,,---,0.00,VWS V14.01,2013-02-05 19:37:00,
2013-02-05 14:07:00,42.2,36.2,29.98,NW,315,6.0,33.0,79,0.00,,---,0.00,VWS V14.01,2013-02-05 20:07:00,
2013-02-05 14:37:00,41.7,36.0,29.98,NNW,342,9.0,24.0,80,0.00,,---,0.00,VWS V14.01,2013-02-05 20:37:00,
2013-02-05 15:07:00,40.8,36.3,30.00,NNW,346,6.0,24.0,84,0.00,,---,0.00,VWS V14.01,2013-02-05 21:07:00,
2013-02-05 15:37:00,39.9,35.8,30.01,North,355,6.0,21.0,85,0.00,,---,0.00,VWS V14.01,2013-02-05 21:37:00,
2013-02-05 16:07:00,39.3,34.9,30.03,NW,311,21.0,27.0,84,0.00,,---,0.00,VWS V14.01,2013-02-05 22:07:00,
2013-02-05 16:37:00,38.7,34.0,30.04,NNW,345,9.0,21.0,83,0.00,,---,0.00,VWS V14.01,2013-02-05 22:37:00,
2013-02-05 17:07:00,38.9,33.9,30.04,North,360,6.0,12.0,82,0.00,,---,0.00,VWS V14.01,2013-02-05 23:07:00,
2013-02-05 17:37:00,37.8,33.4,30.05,NNW,334,0.0,12.0,84,0.00,,---,0.00,VWS V14.01,2013-02-05 23:37:00,
2013-02-05 18:07:00,35.8,32.6,30.06,NNW,334,0.0,0.0,88,0.00,,---,0.00,VWS V14.01,2013-02-06 00:07:00,
2013-02-05 18:37:00,33.7,31.9,30.06,NNW,334,0.0,0.0,93,0.00,,---,0.00,VWS V14.01,2013-02-06 00:37:00,
2013-02-05 19:07:00,32.9,31.6,30.07,NNW,334,0.0,0.0,95,0.00,,---,0.00,VWS V14.01,2013-02-06 01:07:00,
2013-02-05 19:37:00,31.9,31.1,30.08,NNW,334,0.0,0.0,97,0.00,,---,0.00,VWS V14.01,2013-02-06 01:37:00,
2013-02-05 20:07:00,31.9,31.4,30.09,West,263,0.0,3.0,98,0.00,,---,0.00,VWS V14.01,2013-02-06 02:07:00,
2013-02-05 20:37:00,31.7,31.0,30.11,West,263,0.0,0.0,97,0.00,,---,0.00,VWS V14.01,2013-02-06 02:37:00,
2013-02-05 21:07:00,30.3,29.8,30.12,West,263,0.0,3.0,98,0.00,,---,0.00,VWS V14.01,2013-02-06 03:07:00,
2013-02-05 21:37:00,28.8,28.8,30.12,West,263,0.0,0.0,100,0.00,,---,0.00,VWS V14.01,2013-02-06 03:37:00,
2013-02-05 22:07:00,27.9,27.9,30.13,West,263,0.0,0.0,100,0.00,,---,0.00,VWS V14.01,2013-02-06 04:07:00,
2013-02-05 22:37:00,27.1,27.1,30.14,West,263,0.0,0.0,100,0.00,,---,0.00,VWS V14.01,2013-02-06 04:37:00,
2013-02-05 23:07:00,26.8,26.8,30.14,West,263,0.0,0.0,100,0.00,,---,0.00,VWS V14.01,2013-02-06 05:07:00,
2013-02-05 23:37:00,26.4,26.4,30.14,West,263,0.0,0.0,100,0.00,,---,0.00,VWS V14.01,2013-02-06 05:37:00,